sensor_id;sensor_type;location;lat;lon;timestamp;temperature;humidity
36660;DHT22;22654;51.054;3.654;2023-04-09T00:02:23;5.50;99.90
36660;DHT22;22654;51.054;3.654;2023-04-09T00:04:49;5.50;99.90
36660;DHT22;22654;51.054;3.654;2023-04-09T00:07:15;5.40;99.90
36660;DHT22;22654;51.054;3.654;2023-04-09T00:09:41;5.30;99.90
36660;DHT22;22654;51.054;3.654;2023-04-09T00:12:07;5.20;99.90
36660;DHT22;22654;51.054;3.654;2023-04-09T00:14:33;5.20;99.90
36660;DHT22;22654;51.054;3.654;2023-04-09T00:16:58;5.60;99.90
36660;DHT22;22654;51.054;3.654;2023-04-09T00:19:24;5.80;99.90
36660;DHT22;22654;51.054;3.654;2023-04-09T00:21:50;5.70;99.90
36660;DHT22;22654;51.054;3.654;2023-04-09T00:24:17;5.50;99.90
36660;DHT22;22654;51.054;3.654;2023-04-09T00:26:42;5.50;99.90
36660;DHT22;22654;51.054;3.654;2023-04-09T00:29:08;5.40;99.90
36660;DHT22;22654;51.054;3.654;2023-04-09T00:31:34;5.30;99.90
36660;DHT22;22654;51.054;3.654;2023-04-09T00:33:59;5.10;99.90
36660;DHT22;22654;51.054;3.654;2023-04-09T00:36:25;5.00;99.90
36660;DHT22;22654;51.054;3.654;2023-04-09T00:38:51;5.00;99.90
36660;DHT22;22654;51.054;3.654;2023-04-09T00:41:18;5.00;99.90
36660;DHT22;22654;51.054;3.654;2023-04-09T00:43:44;4.90;99.90
36660;DHT22;22654;51.054;3.654;2023-04-09T00:46:10;4.80;99.90
36660;DHT22;22654;51.054;3.654;2023-04-09T00:48:35;4.70;99.90
36660;DHT22;22654;51.054;3.654;2023-04-09T00:51:01;4.70;99.90
36660;DHT22;22654;51.054;3.654;2023-04-09T00:53:27;4.70;99.90
36660;DHT22;22654;51.054;3.654;2023-04-09T00:55:53;4.80;99.90
36660;DHT22;22654;51.054;3.654;2023-04-09T00:58:20;4.90;99.90
36660;DHT22;22654;51.054;3.654;2023-04-09T01:00:45;4.90;99.90
36660;DHT22;22654;51.054;3.654;2023-04-09T01:03:11;4.80;99.90
36660;DHT22;22654;51.054;3.654;2023-04-09T01:05:40;4.90;99.90
36660;DHT22;22654;51.054;3.654;2023-04-09T01:08:15;5.10;99.90
36660;DHT22;22654;51.054;3.654;2023-04-09T01:10:53;5.30;99.90
36660;DHT22;22654;51.054;3.654;2023-04-09T01:15:58;5.10;99.90
36660;DHT22;22654;51.054;3.654;2023-04-09T01:18:39;5.00;99.90
36660;DHT22;22654;51.054;3.654;2023-04-09T01:21:09;4.90;99.90
36660;DHT22;22654;51.054;3.654;2023-04-09T01:23:42;4.90;99.90
36660;DHT22;22654;51.054;3.654;2023-04-09T01:28:53;5.30;99.90
36660;DHT22;22654;51.054;3.654;2023-04-09T01:31:19;5.70;99.90
36660;DHT22;22654;51.054;3.654;2023-04-09T01:33:46;5.70;99.90
36660;DHT22;22654;51.054;3.654;2023-04-09T01:36:13;5.40;99.90
36660;DHT22;22654;51.054;3.654;2023-04-09T01:38:39;5.20;99.90
36660;DHT22;22654;51.054;3.654;2023-04-09T01:41:05;5.00;99.90
36660;DHT22;22654;51.054;3.654;2023-04-09T01:43:32;4.80;99.90
36660;DHT22;22654;51.054;3.654;2023-04-09T01:45:59;4.60;99.90
36660;DHT22;22654;51.054;3.654;2023-04-09T01:48:26;4.50;99.90
36660;DHT22;22654;51.054;3.654;2023-04-09T01:50:52;4.50;99.90
36660;DHT22;22654;51.054;3.654;2023-04-09T01:53:21;4.40;99.90
36660;DHT22;22654;51.054;3.654;2023-04-09T01:55:47;4.70;99.90
36660;DHT22;22654;51.054;3.654;2023-04-09T01:58:13;4.80;99.90
36660;DHT22;22654;51.054;3.654;2023-04-09T02:00:41;4.80;99.90
36660;DHT22;22654;51.054;3.654;2023-04-09T02:03:17;5.00;99.90
36660;DHT22;22654;51.054;3.654;2023-04-09T02:05:45;5.00;99.90
36660;DHT22;22654;51.054;3.654;2023-04-09T02:08:15;4.90;99.90
36660;DHT22;22654;51.054;3.654;2023-04-09T02:10:43;5.00;99.90
36660;DHT22;22654;51.054;3.654;2023-04-09T02:13:16;5.20;99.90
36660;DHT22;22654;51.054;3.654;2023-04-09T02:15:43;5.50;99.90
36660;DHT22;22654;51.054;3.654;2023-04-09T02:18:31;5.70;99.90
36660;DHT22;22654;51.054;3.654;2023-04-09T02:20:57;6.00;99.90
36660;DHT22;22654;51.054;3.654;2023-04-09T02:23:26;6.40;99.90
36660;DHT22;22654;51.054;3.654;2023-04-09T02:25:52;6.70;99.90
36660;DHT22;22654;51.054;3.654;2023-04-09T02:28:18;6.90;99.90
36660;DHT22;22654;51.054;3.654;2023-04-09T02:30:44;6.90;99.90
36660;DHT22;22654;51.054;3.654;2023-04-09T02:33:10;6.90;99.90
36660;DHT22;22654;51.054;3.654;2023-04-09T02:35:35;6.90;99.90
36660;DHT22;22654;51.054;3.654;2023-04-09T02:38:01;7.00;99.90
36660;DHT22;22654;51.054;3.654;2023-04-09T02:40:29;7.20;99.90
36660;DHT22;22654;51.054;3.654;2023-04-09T02:42:54;7.10;99.90
36660;DHT22;22654;51.054;3.654;2023-04-09T02:45:20;7.00;99.90
36660;DHT22;22654;51.054;3.654;2023-04-09T02:47:46;7.00;99.90
36660;DHT22;22654;51.054;3.654;2023-04-09T02:50:12;7.00;99.90
36660;DHT22;22654;51.054;3.654;2023-04-09T02:52:45;7.00;99.90
36660;DHT22;22654;51.054;3.654;2023-04-09T02:55:10;7.10;99.90
36660;DHT22;22654;51.054;3.654;2023-04-09T02:57:39;7.10;99.90
36660;DHT22;22654;51.054;3.654;2023-04-09T03:00:06;7.20;99.90
36660;DHT22;22654;51.054;3.654;2023-04-09T03:02:32;7.10;99.90
36660;DHT22;22654;51.054;3.654;2023-04-09T03:04:58;7.10;99.90
36660;DHT22;22654;51.054;3.654;2023-04-09T03:07:24;7.10;99.90
36660;DHT22;22654;51.054;3.654;2023-04-09T03:09:52;7.00;99.90
36660;DHT22;22654;51.054;3.654;2023-04-09T03:12:19;7.00;99.90
36660;DHT22;22654;51.054;3.654;2023-04-09T03:14:45;6.90;99.90
36660;DHT22;22654;51.054;3.654;2023-04-09T03:17:10;6.90;99.90
36660;DHT22;22654;51.054;3.654;2023-04-09T03:19:36;6.90;99.90
36660;DHT22;22654;51.054;3.654;2023-04-09T03:22:02;7.00;99.90
36660;DHT22;22654;51.054;3.654;2023-04-09T03:24:30;6.80;99.90
36660;DHT22;22654;51.054;3.654;2023-04-09T03:27:00;6.60;99.90
36660;DHT22;22654;51.054;3.654;2023-04-09T03:29:30;6.50;99.90
36660;DHT22;22654;51.054;3.654;2023-04-09T03:31:57;6.60;99.90
36660;DHT22;22654;51.054;3.654;2023-04-09T03:34:22;6.80;99.90
36660;DHT22;22654;51.054;3.654;2023-04-09T03:36:52;6.80;99.90
36660;DHT22;22654;51.054;3.654;2023-04-09T03:39:22;7.00;99.90
36660;DHT22;22654;51.054;3.654;2023-04-09T03:41:48;6.90;99.90
36660;DHT22;22654;51.054;3.654;2023-04-09T03:44:22;7.00;99.90
36660;DHT22;22654;51.054;3.654;2023-04-09T03:47:07;6.80;99.90
36660;DHT22;22654;51.054;3.654;2023-04-09T03:49:34;6.80;99.90
36660;DHT22;22654;51.054;3.654;2023-04-09T03:52:08;6.60;99.90
36660;DHT22;22654;51.054;3.654;2023-04-09T03:54:44;6.70;99.90
36660;DHT22;22654;51.054;3.654;2023-04-09T03:57:15;6.60;99.90
36660;DHT22;22654;51.054;3.654;2023-04-09T03:59:43;6.60;99.90
36660;DHT22;22654;51.054;3.654;2023-04-09T04:02:11;6.40;99.90
36660;DHT22;22654;51.054;3.654;2023-04-09T04:04:42;6.30;99.90
36660;DHT22;22654;51.054;3.654;2023-04-09T04:07:09;6.10;99.90
36660;DHT22;22654;51.054;3.654;2023-04-09T04:09:41;6.00;99.90
36660;DHT22;22654;51.054;3.654;2023-04-09T04:12:10;6.00;99.90
36660;DHT22;22654;51.054;3.654;2023-04-09T04:14:54;6.20;99.90
36660;DHT22;22654;51.054;3.654;2023-04-09T04:17:28;6.30;99.90
36660;DHT22;22654;51.054;3.654;2023-04-09T04:19:54;6.60;99.90
36660;DHT22;22654;51.054;3.654;2023-04-09T04:22:21;6.80;99.90
36660;DHT22;22654;51.054;3.654;2023-04-09T04:24:52;6.80;99.90
36660;DHT22;22654;51.054;3.654;2023-04-09T04:27:20;6.90;99.90
36660;DHT22;22654;51.054;3.654;2023-04-09T04:29:46;6.70;99.90
36660;DHT22;22654;51.054;3.654;2023-04-09T04:32:47;6.70;99.90
36660;DHT22;22654;51.054;3.654;2023-04-09T04:35:13;6.70;99.90
36660;DHT22;22654;51.054;3.654;2023-04-09T04:37:42;6.60;99.90
36660;DHT22;22654;51.054;3.654;2023-04-09T04:40:09;6.60;99.90
36660;DHT22;22654;51.054;3.654;2023-04-09T04:42:39;6.50;99.90
36660;DHT22;22654;51.054;3.654;2023-04-09T04:48:10;6.60;99.90
36660;DHT22;22654;51.054;3.654;2023-04-09T04:50:36;6.70;99.90
36660;DHT22;22654;51.054;3.654;2023-04-09T04:53:05;6.60;99.90
36660;DHT22;22654;51.054;3.654;2023-04-09T04:55:39;6.60;99.90
36660;DHT22;22654;51.054;3.654;2023-04-09T04:58:08;6.70;99.90
36660;DHT22;22654;51.054;3.654;2023-04-09T05:00:42;6.90;99.90
36660;DHT22;22654;51.054;3.654;2023-04-09T05:03:07;6.80;99.90
36660;DHT22;22654;51.054;3.654;2023-04-09T05:05:50;6.70;99.90
36660;DHT22;22654;51.054;3.654;2023-04-09T05:08:16;6.80;99.90
36660;DHT22;22654;51.054;3.654;2023-04-09T05:10:45;6.90;99.90
36660;DHT22;22654;51.054;3.654;2023-04-09T05:13:12;6.90;99.90
36660;DHT22;22654;51.054;3.654;2023-04-09T05:15:38;6.80;99.90
36660;DHT22;22654;51.054;3.654;2023-04-09T05:18:05;6.70;99.90
36660;DHT22;22654;51.054;3.654;2023-04-09T05:20:32;6.90;99.90
36660;DHT22;22654;51.054;3.654;2023-04-09T05:23:11;7.00;99.90
36660;DHT22;22654;51.054;3.654;2023-04-09T05:25:44;7.00;99.90
36660;DHT22;22654;51.054;3.654;2023-04-09T05:28:21;6.70;99.90
36660;DHT22;22654;51.054;3.654;2023-04-09T05:30:52;6.60;99.90
36660;DHT22;22654;51.054;3.654;2023-04-09T05:33:18;6.70;99.90
36660;DHT22;22654;51.054;3.654;2023-04-09T05:35:44;6.90;99.90
36660;DHT22;22654;51.054;3.654;2023-04-09T05:38:10;6.80;99.90
36660;DHT22;22654;51.054;3.654;2023-04-09T05:40:39;6.90;99.90
36660;DHT22;22654;51.054;3.654;2023-04-09T05:43:10;6.90;99.90
36660;DHT22;22654;51.054;3.654;2023-04-09T05:45:39;6.90;99.90
36660;DHT22;22654;51.054;3.654;2023-04-09T05:48:06;7.10;99.90
36660;DHT22;22654;51.054;3.654;2023-04-09T05:50:33;7.20;99.90
36660;DHT22;22654;51.054;3.654;2023-04-09T05:52:58;7.40;99.90
36660;DHT22;22654;51.054;3.654;2023-04-09T05:55:31;7.70;99.90
36660;DHT22;22654;51.054;3.654;2023-04-09T05:57:59;7.90;99.90
36660;DHT22;22654;51.054;3.654;2023-04-09T06:00:25;7.90;99.90
36660;DHT22;22654;51.054;3.654;2023-04-09T06:02:51;8.10;99.90
36660;DHT22;22654;51.054;3.654;2023-04-09T06:05:16;8.30;99.90
36660;DHT22;22654;51.054;3.654;2023-04-09T06:07:42;8.40;99.90
36660;DHT22;22654;51.054;3.654;2023-04-09T06:10:08;8.70;99.90
36660;DHT22;22654;51.054;3.654;2023-04-09T06:12:34;9.10;99.90
36660;DHT22;22654;51.054;3.654;2023-04-09T06:15:00;9.40;99.90
36660;DHT22;22654;51.054;3.654;2023-04-09T06:17:27;9.90;99.90
36660;DHT22;22654;51.054;3.654;2023-04-09T06:19:53;10.60;99.90
36660;DHT22;22654;51.054;3.654;2023-04-09T06:22:18;11.40;99.90
36660;DHT22;22654;51.054;3.654;2023-04-09T06:24:44;12.20;99.90
36660;DHT22;22654;51.054;3.654;2023-04-09T06:27:10;13.00;99.90
36660;DHT22;22654;51.054;3.654;2023-04-09T06:29:36;13.80;99.90
36660;DHT22;22654;51.054;3.654;2023-04-09T06:32:02;14.40;99.90
36660;DHT22;22654;51.054;3.654;2023-04-09T06:34:28;15.00;99.90
36660;DHT22;22654;51.054;3.654;2023-04-09T06:36:54;15.50;99.90
36660;DHT22;22654;51.054;3.654;2023-04-09T06:39:20;15.60;99.90
36660;DHT22;22654;51.054;3.654;2023-04-09T06:41:46;15.80;99.90
36660;DHT22;22654;51.054;3.654;2023-04-09T06:44:23;16.10;99.90
36660;DHT22;22654;51.054;3.654;2023-04-09T06:46:49;16.30;99.90
36660;DHT22;22654;51.054;3.654;2023-04-09T06:49:15;17.00;99.90
36660;DHT22;22654;51.054;3.654;2023-04-09T06:51:41;17.40;99.90
36660;DHT22;22654;51.054;3.654;2023-04-09T06:54:07;17.50;99.90
36660;DHT22;22654;51.054;3.654;2023-04-09T06:56:33;17.80;99.90
36660;DHT22;22654;51.054;3.654;2023-04-09T06:58:59;18.10;99.90
36660;DHT22;22654;51.054;3.654;2023-04-09T07:01:25;18.40;99.90
36660;DHT22;22654;51.054;3.654;2023-04-09T07:03:51;18.90;99.90
36660;DHT22;22654;51.054;3.654;2023-04-09T07:06:17;18.90;99.90
36660;DHT22;22654;51.054;3.654;2023-04-09T07:08:43;18.80;99.90
36660;DHT22;22654;51.054;3.654;2023-04-09T07:11:09;18.20;99.90
36660;DHT22;22654;51.054;3.654;2023-04-09T07:13:35;17.30;99.90
36660;DHT22;22654;51.054;3.654;2023-04-09T07:16:01;16.80;99.90
36660;DHT22;22654;51.054;3.654;2023-04-09T07:18:26;16.50;99.90
36660;DHT22;22654;51.054;3.654;2023-04-09T07:20:52;16.60;99.90
36660;DHT22;22654;51.054;3.654;2023-04-09T07:23:19;16.90;99.90
36660;DHT22;22654;51.054;3.654;2023-04-09T07:25:44;16.90;99.90
36660;DHT22;22654;51.054;3.654;2023-04-09T07:28:10;17.00;99.90
36660;DHT22;22654;51.054;3.654;2023-04-09T07:30:36;17.20;99.90
36660;DHT22;22654;51.054;3.654;2023-04-09T07:33:05;17.20;99.90
36660;DHT22;22654;51.054;3.654;2023-04-09T07:35:30;16.80;99.90
36660;DHT22;22654;51.054;3.654;2023-04-09T07:37:57;16.70;99.90
36660;DHT22;22654;51.054;3.654;2023-04-09T07:40:23;16.40;99.90
36660;DHT22;22654;51.054;3.654;2023-04-09T07:42:49;16.00;99.90
36660;DHT22;22654;51.054;3.654;2023-04-09T07:45:15;15.90;99.90
36660;DHT22;22654;51.054;3.654;2023-04-09T07:47:41;16.00;99.90
36660;DHT22;22654;51.054;3.654;2023-04-09T07:50:07;16.00;99.90
36660;DHT22;22654;51.054;3.654;2023-04-09T07:52:33;15.20;99.90
36660;DHT22;22654;51.054;3.654;2023-04-09T07:54:59;14.50;99.90
36660;DHT22;22654;51.054;3.654;2023-04-09T07:57:29;14.00;99.90
36660;DHT22;22654;51.054;3.654;2023-04-09T07:59:55;13.70;99.90
36660;DHT22;22654;51.054;3.654;2023-04-09T08:02:21;13.60;99.90
36660;DHT22;22654;51.054;3.654;2023-04-09T08:04:48;13.60;99.90
36660;DHT22;22654;51.054;3.654;2023-04-09T08:07:14;13.60;99.90
36660;DHT22;22654;51.054;3.654;2023-04-09T08:09:40;13.50;99.90
36660;DHT22;22654;51.054;3.654;2023-04-09T08:12:08;13.60;99.90
36660;DHT22;22654;51.054;3.654;2023-04-09T08:14:34;13.70;99.90
36660;DHT22;22654;51.054;3.654;2023-04-09T08:17:00;13.70;99.90
36660;DHT22;22654;51.054;3.654;2023-04-09T08:19:25;13.70;99.90
36660;DHT22;22654;51.054;3.654;2023-04-09T08:21:51;13.70;99.90
36660;DHT22;22654;51.054;3.654;2023-04-09T08:24:17;13.50;99.90
36660;DHT22;22654;51.054;3.654;2023-04-09T08:26:46;13.70;99.90
36660;DHT22;22654;51.054;3.654;2023-04-09T08:29:14;13.80;99.90
36660;DHT22;22654;51.054;3.654;2023-04-09T08:31:40;13.50;99.90
36660;DHT22;22654;51.054;3.654;2023-04-09T08:34:06;13.00;99.90
36660;DHT22;22654;51.054;3.654;2023-04-09T08:36:32;12.70;99.90
36660;DHT22;22654;51.054;3.654;2023-04-09T08:38:59;12.90;99.90
36660;DHT22;22654;51.054;3.654;2023-04-09T08:41:25;13.10;99.90
36660;DHT22;22654;51.054;3.654;2023-04-09T08:43:55;13.30;99.90
36660;DHT22;22654;51.054;3.654;2023-04-09T08:46:21;13.50;99.90
36660;DHT22;22654;51.054;3.654;2023-04-09T08:48:48;13.60;99.90
36660;DHT22;22654;51.054;3.654;2023-04-09T08:51:14;13.70;99.90
36660;DHT22;22654;51.054;3.654;2023-04-09T08:53:47;13.90;99.90
36660;DHT22;22654;51.054;3.654;2023-04-09T08:56:15;13.90;99.90
36660;DHT22;22654;51.054;3.654;2023-04-09T08:58:44;13.90;99.90
36660;DHT22;22654;51.054;3.654;2023-04-09T09:01:23;14.10;99.90
36660;DHT22;22654;51.054;3.654;2023-04-09T09:04:05;14.20;99.90
36660;DHT22;22654;51.054;3.654;2023-04-09T09:06:32;14.40;99.90
36660;DHT22;22654;51.054;3.654;2023-04-09T09:08:59;14.40;99.90
36660;DHT22;22654;51.054;3.654;2023-04-09T09:11:25;14.30;99.90
36660;DHT22;22654;51.054;3.654;2023-04-09T09:14:00;14.20;99.90
36660;DHT22;22654;51.054;3.654;2023-04-09T09:16:26;14.30;99.90
36660;DHT22;22654;51.054;3.654;2023-04-09T09:18:52;14.30;99.90
36660;DHT22;22654;51.054;3.654;2023-04-09T09:21:20;14.30;99.90
36660;DHT22;22654;51.054;3.654;2023-04-09T09:23:46;14.10;99.90
36660;DHT22;22654;51.054;3.654;2023-04-09T09:26:14;14.20;99.90
36660;DHT22;22654;51.054;3.654;2023-04-09T09:28:43;14.30;99.90
36660;DHT22;22654;51.054;3.654;2023-04-09T09:31:09;14.20;99.90
36660;DHT22;22654;51.054;3.654;2023-04-09T09:33:35;14.50;99.90
36660;DHT22;22654;51.054;3.654;2023-04-09T09:36:01;14.50;99.90
36660;DHT22;22654;51.054;3.654;2023-04-09T09:38:28;14.40;99.90
36660;DHT22;22654;51.054;3.654;2023-04-09T09:40:54;14.50;99.90
36660;DHT22;22654;51.054;3.654;2023-04-09T09:43:20;14.80;99.90
36660;DHT22;22654;51.054;3.654;2023-04-09T09:45:46;14.80;99.90
36660;DHT22;22654;51.054;3.654;2023-04-09T09:48:15;14.90;99.90
36660;DHT22;22654;51.054;3.654;2023-04-09T09:50:41;15.00;99.90
36660;DHT22;22654;51.054;3.654;2023-04-09T09:53:08;15.20;99.90
36660;DHT22;22654;51.054;3.654;2023-04-09T09:55:42;15.40;99.90
36660;DHT22;22654;51.054;3.654;2023-04-09T09:58:15;15.80;99.90
36660;DHT22;22654;51.054;3.654;2023-04-09T10:00:42;16.00;99.90
36660;DHT22;22654;51.054;3.654;2023-04-09T10:03:11;16.10;99.90
36660;DHT22;22654;51.054;3.654;2023-04-09T10:05:37;16.20;99.90
36660;DHT22;22654;51.054;3.654;2023-04-09T10:08:05;16.10;99.90
36660;DHT22;22654;51.054;3.654;2023-04-09T10:10:31;15.90;99.90
36660;DHT22;22654;51.054;3.654;2023-04-09T10:12:58;15.90;99.90
36660;DHT22;22654;51.054;3.654;2023-04-09T10:15:24;16.00;99.90
36660;DHT22;22654;51.054;3.654;2023-04-09T10:17:50;16.00;99.90
36660;DHT22;22654;51.054;3.654;2023-04-09T10:20:23;16.20;99.90
36660;DHT22;22654;51.054;3.654;2023-04-09T10:22:50;16.40;99.90
36660;DHT22;22654;51.054;3.654;2023-04-09T10:25:16;16.80;99.90
36660;DHT22;22654;51.054;3.654;2023-04-09T10:27:42;16.70;99.90
36660;DHT22;22654;51.054;3.654;2023-04-09T10:33:11;16.60;99.90
36660;DHT22;22654;51.054;3.654;2023-04-09T10:35:37;16.70;99.90
36660;DHT22;22654;51.054;3.654;2023-04-09T10:38:06;16.50;99.90
36660;DHT22;22654;51.054;3.654;2023-04-09T10:40:32;16.60;99.90
36660;DHT22;22654;51.054;3.654;2023-04-09T10:42:57;16.50;99.90
36660;DHT22;22654;51.054;3.654;2023-04-09T10:45:23;16.30;99.90
36660;DHT22;22654;51.054;3.654;2023-04-09T10:47:50;16.20;99.90
36660;DHT22;22654;51.054;3.654;2023-04-09T10:50:20;16.20;99.90
36660;DHT22;22654;51.054;3.654;2023-04-09T10:52:46;16.30;99.90
36660;DHT22;22654;51.054;3.654;2023-04-09T10:57:56;16.40;99.90
36660;DHT22;22654;51.054;3.654;2023-04-09T11:00:22;16.60;99.90
36660;DHT22;22654;51.054;3.654;2023-04-09T11:05:29;17.20;99.90
36660;DHT22;22654;51.054;3.654;2023-04-09T11:08:11;17.10;99.90
36660;DHT22;22654;51.054;3.654;2023-04-09T11:10:38;17.00;99.90
36660;DHT22;22654;51.054;3.654;2023-04-09T11:13:04;16.60;99.90
36660;DHT22;22654;51.054;3.654;2023-04-09T11:15:33;16.40;99.90
36660;DHT22;22654;51.054;3.654;2023-04-09T11:18:02;16.40;99.90
36660;DHT22;22654;51.054;3.654;2023-04-09T11:20:28;16.80;99.90
36660;DHT22;22654;51.054;3.654;2023-04-09T11:22:55;17.00;99.90
36660;DHT22;22654;51.054;3.654;2023-04-09T11:25:22;17.20;99.90
36660;DHT22;22654;51.054;3.654;2023-04-09T11:27:48;17.30;99.90
36660;DHT22;22654;51.054;3.654;2023-04-09T11:30:17;17.70;99.90
36660;DHT22;22654;51.054;3.654;2023-04-09T11:32:43;17.90;99.90
36660;DHT22;22654;51.054;3.654;2023-04-09T11:35:12;17.90;99.90
36660;DHT22;22654;51.054;3.654;2023-04-09T11:37:39;17.90;99.90
36660;DHT22;22654;51.054;3.654;2023-04-09T11:40:05;18.00;99.90
36660;DHT22;22654;51.054;3.654;2023-04-09T11:42:31;18.10;99.90
36660;DHT22;22654;51.054;3.654;2023-04-09T11:44:56;17.90;99.90
36660;DHT22;22654;51.054;3.654;2023-04-09T11:47:22;18.00;99.90
36660;DHT22;22654;51.054;3.654;2023-04-09T11:49:48;18.20;99.90
36660;DHT22;22654;51.054;3.654;2023-04-09T11:52:14;18.20;99.90
36660;DHT22;22654;51.054;3.654;2023-04-09T11:54:49;18.30;99.90
36660;DHT22;22654;51.054;3.654;2023-04-09T11:57:19;18.30;99.90
36660;DHT22;22654;51.054;3.654;2023-04-09T11:59:45;18.20;99.90
36660;DHT22;22654;51.054;3.654;2023-04-09T12:02:10;18.30;99.90
36660;DHT22;22654;51.054;3.654;2023-04-09T12:04:36;18.40;99.90
36660;DHT22;22654;51.054;3.654;2023-04-09T12:07:02;18.70;99.90
36660;DHT22;22654;51.054;3.654;2023-04-09T12:09:28;19.00;99.90
36660;DHT22;22654;51.054;3.654;2023-04-09T12:11:54;18.20;99.90
36660;DHT22;22654;51.054;3.654;2023-04-09T12:14:21;17.60;99.90
36660;DHT22;22654;51.054;3.654;2023-04-09T12:16:49;17.50;99.90
36660;DHT22;22654;51.054;3.654;2023-04-09T12:19:15;17.20;99.90
36660;DHT22;22654;51.054;3.654;2023-04-09T12:24:11;16.80;99.90
36660;DHT22;22654;51.054;3.654;2023-04-09T12:26:36;16.60;99.90
36660;DHT22;22654;51.054;3.654;2023-04-09T12:29:02;16.90;99.90
36660;DHT22;22654;51.054;3.654;2023-04-09T12:31:28;17.00;99.90
36660;DHT22;22654;51.054;3.654;2023-04-09T12:33:54;17.10;99.90
36660;DHT22;22654;51.054;3.654;2023-04-09T12:36:19;17.60;99.90
36660;DHT22;22654;51.054;3.654;2023-04-09T12:38:45;18.60;99.90
36660;DHT22;22654;51.054;3.654;2023-04-09T12:41:11;19.40;99.90
36660;DHT22;22654;51.054;3.654;2023-04-09T12:43:40;20.20;99.90
36660;DHT22;22654;51.054;3.654;2023-04-09T12:46:08;20.90;99.90
36660;DHT22;22654;51.054;3.654;2023-04-09T12:48:34;21.40;99.30
36660;DHT22;22654;51.054;3.654;2023-04-09T12:51:00;21.40;99.90
36660;DHT22;22654;51.054;3.654;2023-04-09T12:53:28;20.80;99.90
36660;DHT22;22654;51.054;3.654;2023-04-09T12:55:54;21.00;99.90
36660;DHT22;22654;51.054;3.654;2023-04-09T12:58:20;21.40;99.10
36660;DHT22;22654;51.054;3.654;2023-04-09T13:00:46;21.30;99.50
36660;DHT22;22654;51.054;3.654;2023-04-09T13:03:12;21.30;98.80
36660;DHT22;22654;51.054;3.654;2023-04-09T13:05:41;21.00;99.00
36660;DHT22;22654;51.054;3.654;2023-04-09T13:08:07;21.10;98.90
36660;DHT22;22654;51.054;3.654;2023-04-09T13:10:32;21.20;99.30
36660;DHT22;22654;51.054;3.654;2023-04-09T13:12:58;21.50;97.90
36660;DHT22;22654;51.054;3.654;2023-04-09T13:15:24;21.60;97.00
36660;DHT22;22654;51.054;3.654;2023-04-09T13:17:50;21.00;97.70
36660;DHT22;22654;51.054;3.654;2023-04-09T13:20:16;20.80;98.00
36660;DHT22;22654;51.054;3.654;2023-04-09T13:22:42;20.70;98.00
36660;DHT22;22654;51.054;3.654;2023-04-09T13:25:16;20.80;97.40
36660;DHT22;22654;51.054;3.654;2023-04-09T13:27:42;20.50;98.00
36660;DHT22;22654;51.054;3.654;2023-04-09T13:30:08;20.10;99.00
36660;DHT22;22654;51.054;3.654;2023-04-09T13:32:33;20.30;98.50
36660;DHT22;22654;51.054;3.654;2023-04-09T13:34:59;20.50;97.40
36660;DHT22;22654;51.054;3.654;2023-04-09T13:37:25;20.60;97.90
36660;DHT22;22654;51.054;3.654;2023-04-09T13:39:51;20.90;98.20
36660;DHT22;22654;51.054;3.654;2023-04-09T13:42:17;20.90;97.70
36660;DHT22;22654;51.054;3.654;2023-04-09T13:44:43;20.50;96.90
36660;DHT22;22654;51.054;3.654;2023-04-09T13:47:10;20.50;97.10
36660;DHT22;22654;51.054;3.654;2023-04-09T13:49:37;20.20;98.30
36660;DHT22;22654;51.054;3.654;2023-04-09T13:52:04;20.00;97.90
36660;DHT22;22654;51.054;3.654;2023-04-09T13:54:30;20.30;97.70
36660;DHT22;22654;51.054;3.654;2023-04-09T13:56:55;20.20;97.60
36660;DHT22;22654;51.054;3.654;2023-04-09T13:59:21;20.20;99.00
36660;DHT22;22654;51.054;3.654;2023-04-09T14:01:47;20.50;98.80
36660;DHT22;22654;51.054;3.654;2023-04-09T14:04:13;20.20;98.00
36660;DHT22;22654;51.054;3.654;2023-04-09T14:06:39;20.20;97.90
36660;DHT22;22654;51.054;3.654;2023-04-09T14:09:07;20.10;97.70
36660;DHT22;22654;51.054;3.654;2023-04-09T14:11:32;19.90;98.60
36660;DHT22;22654;51.054;3.654;2023-04-09T14:13:58;19.90;99.10
36660;DHT22;22654;51.054;3.654;2023-04-09T14:16:24;20.40;98.80
36660;DHT22;22654;51.054;3.654;2023-04-09T14:18:50;20.90;97.50
36660;DHT22;22654;51.054;3.654;2023-04-09T14:21:16;21.10;97.90
36660;DHT22;22654;51.054;3.654;2023-04-09T14:23:42;21.20;97.80
36660;DHT22;22654;51.054;3.654;2023-04-09T14:26:08;21.20;97.70
36660;DHT22;22654;51.054;3.654;2023-04-09T14:28:34;21.00;97.20
36660;DHT22;22654;51.054;3.654;2023-04-09T14:30:59;21.10;97.80
36660;DHT22;22654;51.054;3.654;2023-04-09T14:33:25;20.90;97.60
36660;DHT22;22654;51.054;3.654;2023-04-09T14:35:51;20.90;97.30
36660;DHT22;22654;51.054;3.654;2023-04-09T14:38:17;20.80;97.50
36660;DHT22;22654;51.054;3.654;2023-04-09T14:40:43;20.80;97.90
36660;DHT22;22654;51.054;3.654;2023-04-09T14:43:09;20.70;96.40
36660;DHT22;22654;51.054;3.654;2023-04-09T14:45:35;20.30;97.10
36660;DHT22;22654;51.054;3.654;2023-04-09T14:48:01;19.80;97.70
36660;DHT22;22654;51.054;3.654;2023-04-09T14:50:29;19.60;97.80
36660;DHT22;22654;51.054;3.654;2023-04-09T14:52:55;19.40;98.50
36660;DHT22;22654;51.054;3.654;2023-04-09T14:55:24;19.60;98.70
36660;DHT22;22654;51.054;3.654;2023-04-09T14:57:50;20.20;98.70
36660;DHT22;22654;51.054;3.654;2023-04-09T15:00:16;20.90;98.10
36660;DHT22;22654;51.054;3.654;2023-04-09T15:02:41;21.40;97.50
36660;DHT22;22654;51.054;3.654;2023-04-09T15:05:07;21.90;97.00
36660;DHT22;22654;51.054;3.654;2023-04-09T15:07:33;22.30;96.40
36660;DHT22;22654;51.054;3.654;2023-04-09T15:09:59;22.80;96.60
36660;DHT22;22654;51.054;3.654;2023-04-09T15:12:26;23.20;95.80
36660;DHT22;22654;51.054;3.654;2023-04-09T15:14:55;23.60;95.10
36660;DHT22;22654;51.054;3.654;2023-04-09T15:17:23;23.90;94.50
36660;DHT22;22654;51.054;3.654;2023-04-09T15:19:51;23.90;94.30
36660;DHT22;22654;51.054;3.654;2023-04-09T15:22:17;24.00;93.50
36660;DHT22;22654;51.054;3.654;2023-04-09T15:24:43;24.10;92.90
36660;DHT22;22654;51.054;3.654;2023-04-09T15:27:09;24.30;92.60
36660;DHT22;22654;51.054;3.654;2023-04-09T15:29:35;24.50;92.00
36660;DHT22;22654;51.054;3.654;2023-04-09T15:32:00;24.60;92.10
36660;DHT22;22654;51.054;3.654;2023-04-09T15:34:26;24.50;91.70
36660;DHT22;22654;51.054;3.654;2023-04-09T15:36:52;24.60;91.30
36660;DHT22;22654;51.054;3.654;2023-04-09T15:39:18;25.00;91.40
36660;DHT22;22654;51.054;3.654;2023-04-09T15:41:44;25.20;91.00
36660;DHT22;22654;51.054;3.654;2023-04-09T15:44:10;25.30;90.80
36660;DHT22;22654;51.054;3.654;2023-04-09T15:46:38;25.30;90.30
36660;DHT22;22654;51.054;3.654;2023-04-09T15:49:04;25.20;90.20
36660;DHT22;22654;51.054;3.654;2023-04-09T15:51:30;24.50;90.20
36660;DHT22;22654;51.054;3.654;2023-04-09T15:53:57;24.10;90.60
36660;DHT22;22654;51.054;3.654;2023-04-09T15:56:23;23.20;90.90
36660;DHT22;22654;51.054;3.654;2023-04-09T15:58:49;21.80;92.00